Darlington, South Carolina
Current Conditions -  °F | °C
As of 4:35 PM on Friday 24 Oct 2014 (Local Time) from KUDG Reporting Station
Clear Clear  
Wind Chill: 72°   Ceiling: Unl
Heat Index: 72°   Visibility: 10mi
Dew Point: 45°   Wind: 5mph
Humidity: 38%   Direction: 310°NW
Pressure: 29.99"   Gusts: NA
Location:  34.3°N, 79.87°W
Report Text: KUDG 242035Z AUTO 31004KT 10SM CLR 22/07 A2999 RMK AO1
Loading
Personal Weather Stations






























Interactive Weather Map
Tropical Storm Tracking
New forecast layout! Learn more

10-Day Weather Forecast

Advertisements
Track Severe Weather on mobile